Time;durP1;ratioP1;P1;durP2;ratioP2;P2;SDS_P1;SDS_P2;PMS_P1;PMS_P2;Temp;Humidity;BMP_temperature;BMP_pressure;BME280_temperature;BME280_humidity;BME280_pressure;Samples;Min_cycle;Max_cycle;Signal;HPM_P1;HPM_P2
2022/04/18 00:02:17;;;;;;;0.20;0.20;;;;;;;19.74;39.74;101676.63;5132358;27;21185;-30
2022/04/18 00:04:43;;;;;;;0.20;0.20;;;;;;;19.74;39.90;101684.91;5135526;27;20051;-29
2022/04/18 00:07:10;;;;;;;0.20;0.20;;;;;;;19.75;39.91;101683.81;5117724;27;20138;-29
2022/04/18 00:09:37;;;;;;;0.20;0.20;;;;;;;19.74;39.93;101679.38;5139470;27;20504;-29
2022/04/18 00:12:03;;;;;;;0.20;0.20;;;;;;;19.75;40.13;101678.28;5124060;27;20078;-30
2022/04/18 00:14:29;;;;;;;0.20;0.20;;;;;;;19.74;39.98;101677.44;5123446;27;20134;-31
2022/04/18 00:16:55;;;;;;;0.20;0.20;;;;;;;19.74;39.79;101677.44;5140236;27;20039;-29
2022/04/18 00:19:21;;;;;;;0.20;0.20;;;;;;;19.73;39.80;101673.03;5145631;27;20049;-30
2022/04/18 00:21:46;;;;;;;0.20;0.20;;;;;;;19.74;39.91;101674.69;5142605;27;20043;-30
2022/04/18 00:24:14;;;;;;;0.20;0.20;;;;;;;19.74;39.87;101671.09;5145722;27;20038;-30
2022/04/18 00:26:42;;;;;;;0.30;0.30;;;;;;;19.74;39.89;101668.31;5142485;27;20043;-30
2022/04/18 00:29:07;;;;;;;0.20;0.20;;;;;;;19.74;39.91;101665.56;5141809;27;20043;-30
2022/04/18 00:31:33;;;;;;;0.20;0.20;;;;;;;19.74;40.14;101663.63;5118782;27;20134;-32
2022/04/18 00:33:59;;;;;;;0.20;0.20;;;;;;;19.74;40.15;101662.78;5142802;27;20057;-29
2022/04/18 00:36:24;;;;;;;0.20;0.20;;;;;;;19.74;40.06;101663.63;5142105;27;20496;-32
2022/04/18 00:38:50;;;;;;;0.20;0.20;;;;;;;19.74;39.60;101660.03;5142198;27;20038;-30
2022/04/18 00:41:16;;;;;;;0.20;0.20;;;;;;;19.73;39.82;101670.25;5143356;27;20041;-32
2022/04/18 00:43:45;;;;;;;0.20;0.20;;;;;;;19.73;40.07;101659.22;5140142;27;20072;-30
2022/04/18 00:46:12;;;;;;;0.20;0.20;;;;;;;19.74;39.66;101657.28;5129647;27;20084;-29
2022/04/18 00:48:38;;;;;;;0.20;0.20;;;;;;;19.74;40.00;101657.28;5140896;27;20039;-28
2022/04/18 00:51:06;;;;;;;0.20;0.20;;;;;;;19.74;39.99;101657.28;5124608;27;20089;-32
2022/04/18 00:53:33;;;;;;;0.20;0.20;;;;;;;19.74;39.77;101657.28;5141749;27;20077;-30
2022/04/18 00:55:58;;;;;;;0.20;0.20;;;;;;;19.74;39.84;101651.75;5125352;27;20086;-30
2022/04/18 00:58:24;;;;;;;0.20;0.20;;;;;;;19.74;39.79;101654.50;5125948;27;20038;-29
2022/04/18 01:00:50;;;;;;;0.20;0.20;;;;;;;19.74;39.93;101648.97;5138975;27;20036;-31
2022/04/18 01:03:18;;;;;;;0.20;0.20;;;;;;;19.74;39.67;101643.44;5146535;27;20381;-31
2022/04/18 01:05:43;;;;;;;0.20;0.20;;;;;;;19.73;39.77;101642.63;5124564;27;20075;-34
2022/04/18 01:08:09;;;;;;;0.20;0.20;;;;;;;19.73;39.87;101645.38;5142437;27;20043;-30
2022/04/18 01:10:36;;;;;;;0.20;0.20;;;;;;;19.73;39.97;101639.84;5123694;27;20129;-31
2022/04/18 01:13:01;;;;;;;0.20;0.20;;;;;;;19.73;39.96;101642.63;5143090;27;20081;-29
2022/04/18 01:15:27;;;;;;;0.20;0.20;;;;;;;19.72;39.92;101638.16;5142548;27;20047;-29
2022/04/18 01:17:53;;;;;;;0.10;0.10;;;;;;;19.73;39.85;101639.00;5143023;27;20035;-30
2022/04/18 01:20:18;;;;;;;0.20;0.20;;;;;;;19.73;39.88;101637.09;5138840;27;20055;-29
2022/04/18 01:22:45;;;;;;;0.20;0.20;;;;;;;19.74;39.96;101636.00;5137864;27;20047;-31
2022/04/18 01:30:42;;;;;;;0.10;0.10;;;;;;;19.73;39.98;101641.75;5126357;27;20142;-29
2022/04/18 01:33:07;;;;;;;0.20;0.20;;;;;;;19.74;39.68;101637.94;5138364;27;20146;-31
2022/04/18 01:35:36;;;;;;;0.20;0.20;;;;;;;19.73;40.13;101633.47;5142242;27;20049;-30
2022/04/18 01:38:01;;;;;;;;;;;;;;;19.73;39.74;101636.22;5141615;27;20070;-29
2022/04/18 01:40:27;;;;;;;0.20;0.20;;;;;;;19.72;39.95;101635.41;5142469;27;19929;-30
2022/04/18 01:42:52;;;;;;;0.20;0.20;;;;;;;19.73;39.85;101633.47;5135818;27;20043;-30
2022/04/18 01:45:18;;;;;;;0.20;0.20;;;;;;;19.73;39.99;101637.09;5136963;27;20040;-31
2022/04/18 01:47:44;;;;;;;0.20;0.20;;;;;;;19.72;39.80;101638.16;5139774;27;20540;-32
2022/04/18 01:50:10;;;;;;;0.10;0.10;;;;;;;19.73;39.69;101639.00;5138126;27;20098;-31
2022/04/18 01:52:35;;;;;;;0.20;0.20;;;;;;;19.72;40.01;101643.69;5145394;27;20119;-29
2022/04/18 01:55:01;;;;;;;0.20;0.20;;;;;;;19.73;39.59;101636.22;5140373;27;20054;-30
2022/04/18 01:57:26;;;;;;;0.20;0.20;;;;;;;19.73;39.80;101636.22;5141762;27;20126;-30
2022/04/18 01:59:52;;;;;;;0.20;0.20;;;;;;;19.72;39.71;101632.66;5138726;27;20041;-30
2022/04/18 02:02:18;;;;;;;0.20;0.20;;;;;;;19.73;39.75;101636.22;5139071;27;20156;-30
2022/04/18 02:04:43;;;;;;;0.20;0.20;;;;;;;19.72;39.65;101632.66;5143316;27;20047;-30
2022/04/18 02:07:10;;;;;;;0.20;0.20;;;;;;;19.73;39.94;101620.50;5138949;27;20042;-31
2022/04/18 02:09:36;;;;;;;0.20;0.20;;;;;;;19.73;39.75;101619.66;5142012;27;20556;-30
2022/04/18 02:12:02;;;;;;;0.20;0.20;;;;;;;19.74;39.96;101618.59;5142498;27;20115;-30
2022/04/18 02:14:27;;;;;;;0.20;0.20;;;;;;;19.73;40.03;101614.13;5141369;27;20507;-31
2022/04/18 02:16:53;;;;;;;0.20;0.20;;;;;;;19.73;39.60;101612.22;5141141;27;20047;-30
2022/04/18 02:19:19;;;;;;;0.20;0.20;;;;;;;19.73;39.79;101615.00;5142718;27;20134;-30
2022/04/18 02:21:44;;;;;;;0.20;0.20;;;;;;;19.73;39.85;101611.38;5139629;27;20168;-29
2022/04/18 02:24:11;;;;;;;0.20;0.20;;;;;;;19.73;39.79;101611.38;5139109;27;20084;-30
2022/04/18 02:26:36;;;;;;;0.20;0.20;;;;;;;19.74;39.98;101602.00;5147867;27;20081;-30
2022/04/18 02:29:02;;;;;;;0.20;0.20;;;;;;;19.73;39.98;101603.06;5139172;27;20051;-29
2022/04/18 02:31:28;;;;;;;0.20;0.20;;;;;;;19.72;39.57;101591.19;5139723;27;20046;-31
2022/04/18 02:33:53;;;;;;;0.20;0.20;;;;;;;19.73;39.70;101598.41;5145435;27;20042;-31
2022/04/18 02:36:19;;;;;;;0.20;0.20;;;;;;;19.74;39.70;101596.47;5140448;27;20038;-30
2022/04/18 02:38:45;;;;;;;0.20;0.20;;;;;;;19.73;39.96;101590.13;5142669;27;20188;-30
2022/04/18 02:41:10;;;;;;;0.20;0.20;;;;;;;19.72;39.51;101585.66;5142518;27;20038;-30
2022/04/18 02:43:36;;;;;;;0.20;0.20;;;;;;;19.73;39.98;101583.72;5141412;27;20542;-30
2022/04/18 02:46:02;;;;;;;0.20;0.20;;;;;;;19.73;39.56;101589.25;5138566;27;20393;-29
2022/04/18 02:48:29;;;;;;;0.20;0.20;;;;;;;19.74;39.83;101585.41;5139184;27;20045;-30
2022/04/18 02:50:55;;;;;;;0.10;0.10;;;;;;;19.73;39.85;101584.59;5141492;27;20153;-30
2022/04/18 02:53:21;;;;;;;0.20;0.20;;;;;;;19.72;39.60;101582.91;5120694;27;20462;-30
2022/04/18 02:55:46;;;;;;;0.20;0.20;;;;;;;19.72;39.73;101582.91;5144924;27;20050;-29
2022/04/18 02:58:12;;;;;;;0.20;0.20;;;;;;;19.73;39.41;101584.59;5137833;27;20046;-30
2022/04/18 03:00:38;;;;;;;0.20;0.20;;;;;;;19.73;39.82;101581.81;5136056;27;20039;-30
2022/04/18 03:03:03;;;;;;;0.20;0.20;;;;;;;19.73;39.96;101569.91;5141811;27;20038;-31
2022/04/18 03:05:29;;;;;;;0.20;0.20;;;;;;;19.73;39.71;101569.91;5136038;27;20469;-30
2022/04/18 03:07:55;;;;;;;0.20;0.20;;;;;;;19.73;39.57;101569.91;5137504;27;20051;-30
2022/04/18 03:11:02;;;;;;;0.20;0.20;;;;;;;19.72;39.69;101571.03;5140538;27;20039;-30
2022/04/18 03:13:06;;;;;;;0.20;0.20;;;;;;;19.74;39.62;101568.84;5127093;27;20142;-31
2022/04/18 03:15:32;;;;;;;0.20;0.20;;;;;;;19.72;39.82;101574.59;5139099;27;20448;-30
2022/04/18 03:17:57;;;;;;;0.20;0.20;;;;;;;19.72;39.86;101569.09;5138078;27;20047;-30
2022/04/18 03:20:23;;;;;;;0.20;0.20;;;;;;;19.73;39.91;101564.38;5142201;27;20035;-29
2022/04/18 03:22:49;;;;;;;0.20;0.20;;;;;;;19.73;39.85;101569.91;5143840;27;20508;-32
2022/04/18 03:25:14;;;;;;;0.20;0.20;;;;;;;19.73;39.88;101568.00;5140032;27;20150;-30
2022/04/18 03:27:40;;;;;;;0.20;0.20;;;;;;;19.72;39.80;101577.38;5147329;27;20134;-30
2022/04/18 03:30:06;;;;;;;0.20;0.20;;;;;;;19.73;39.77;101569.91;5138404;27;20126;-30
2022/04/18 03:32:31;;;;;;;0.20;0.20;;;;;;;19.73;39.85;101576.28;5137443;27;20047;-30
2022/04/18 03:34:57;;;;;;;0.20;0.20;;;;;;;19.73;39.96;101572.69;5129706;28;20049;-30
2022/04/18 03:40:09;;;;;;;0.20;0.20;;;;;;;19.72;39.81;101569.09;5119481;27;20126;-31
2022/04/18 03:42:35;;;;;;;0.20;0.20;;;;;;;19.72;39.88;101565.50;5137404;27;20071;-30
2022/04/18 03:45:02;;;;;;;0.20;0.20;;;;;;;19.72;39.59;101559.97;5140851;27;20050;-30
2022/04/18 03:47:28;;;;;;;0.20;0.20;;;;;;;19.73;39.60;101569.91;5144027;27;20070;-30
2022/04/18 03:49:54;;;;;;;0.20;0.20;;;;;;;19.72;39.71;101569.09;5139305;27;20043;-30
2022/04/18 03:52:21;;;;;;;0.20;0.20;;;;;;;19.72;39.63;101568.25;5144025;27;20047;-29
2022/04/18 03:54:46;;;;;;;0.20;0.20;;;;;;;19.72;39.82;101560.78;5127146;27;20085;-30
2022/04/18 03:57:13;;;;;;;0.20;0.20;;;;;;;19.73;39.98;101559.72;5147256;27;20039;-29
2022/04/18 03:59:39;;;;;;;0.20;0.20;;;;;;;19.74;39.75;101566.06;5119932;27;20119;-30
2022/04/18 04:02:05;;;;;;;0.20;0.20;;;;;;;19.73;39.91;101568.00;5144363;27;20055;-30
2022/04/18 04:04:30;;;;;;;0.20;0.20;;;;;;;19.72;39.74;101565.50;5142380;27;20039;-31
2022/04/18 04:06:56;;;;;;;0.20;0.20;;;;;;;19.72;39.72;101563.56;5140962;27;20442;-30
2022/04/18 04:09:22;;;;;;;0.20;0.20;;;;;;;19.72;39.59;101565.50;5143235;27;20050;-29
2022/04/18 04:11:47;;;;;;;0.20;0.20;;;;;;;19.72;39.68;101571.84;5148639;27;20050;-29
2022/04/18 04:14:13;;;;;;;0.20;0.20;;;;;;;19.71;39.59;101567.44;5136936;27;20038;-30
2022/04/18 04:16:39;;;;;;;0.20;0.20;;;;;;;19.72;39.88;101568.25;5141161;27;20046;-30
2022/04/18 04:19:05;;;;;;;0.20;0.20;;;;;;;19.72;39.57;101569.09;5138802;27;20047;-30
2022/04/18 04:21:31;;;;;;;0.20;0.20;;;;;;;19.73;39.77;101575.44;5147087;27;20122;-29
2022/04/18 04:23:57;;;;;;;0.20;0.20;;;;;;;19.73;39.58;101568.00;5141995;27;20611;-30
2022/04/18 04:26:23;;;;;;;0.20;0.20;;;;;;;19.72;39.53;101571.03;5147071;27;20299;-30
2022/04/18 04:28:48;;;;;;;0.20;0.20;;;;;;;19.72;39.53;101571.84;5143870;27;20043;-29
2022/04/18 04:31:14;;;;;;;0.20;0.20;;;;;;;19.72;39.93;101566.31;5144323;27;20450;-29
2022/04/18 04:33:40;;;;;;;0.20;0.20;;;;;;;19.72;39.56;101568.25;5149246;27;20043;-29
2022/04/18 04:36:06;;;;;;;0.20;0.20;;;;;;;19.72;39.56;101571.84;5127468;27;20042;-30
2022/04/18 04:38:31;;;;;;;0.20;0.20;;;;;;;19.72;39.48;101573.78;5118723;27;20043;-30
2022/04/18 04:40:57;;;;;;;0.20;0.20;;;;;;;19.73;39.88;101575.44;5139789;27;20133;-30
2022/04/18 04:43:28;;;;;;;0.20;0.20;;;;;;;19.72;39.66;101571.03;5119648;27;20050;-29
2022/04/18 04:45:55;;;;;;;0.20;0.20;;;;;;;19.72;39.60;101579.31;5141726;27;20611;-29
2022/04/18 04:48:22;;;;;;;0.10;0.10;;;;;;;19.73;39.66;101578.19;5144865;27;20038;-30
2022/04/18 04:50:47;;;;;;;0.20;0.20;;;;;;;19.71;39.83;101581.25;5146784;27;20080;-31
2022/04/18 04:53:13;;;;;;;0.20;0.20;;;;;;;19.70;39.69;101574.06;5145740;27;20035;-31
2022/04/18 04:55:38;;;;;;;0.20;0.20;;;;;;;19.72;39.85;101579.31;5140622;27;20051;-30
2022/04/18 04:58:04;;;;;;;0.20;0.20;;;;;;;19.72;39.53;101584.84;5144364;27;20125;-30
2022/04/18 05:00:31;;;;;;;0.17;0.17;;;;;;;19.70;39.88;101593.41;5141965;27;20054;-29
2022/04/18 05:02:56;;;;;;;0.20;0.20;;;;;;;19.73;39.56;101589.25;5122073;27;20130;-30
2022/04/18 05:05:22;;;;;;;0.20;0.20;;;;;;;19.72;39.48;101584.84;5122406;27;20035;-30
2022/04/18 05:07:48;;;;;;;0.20;0.20;;;;;;;19.71;39.52;101586.78;5140720;27;20092;-30
2022/04/18 05:10:15;;;;;;;0.20;0.20;;;;;;;19.72;39.75;101584.84;5143087;27;20150;-30
2022/04/18 05:12:41;;;;;;;0.20;0.20;;;;;;;19.72;39.60;101573.78;5136955;27;20129;-30
2022/04/18 05:15:07;;;;;;;0.10;0.10;;;;;;;19.72;39.63;101579.31;5144422;27;20074;-30
2022/04/18 05:17:33;;;;;;;0.20;0.20;;;;;;;19.72;39.91;101582.06;5142544;27;20159;-31
2022/04/18 05:19:59;;;;;;;0.20;0.20;;;;;;;19.72;40.00;101579.31;5140113;27;20038;-29
2022/04/18 05:22:25;;;;;;;0.10;0.10;;;;;;;19.71;39.74;101581.25;5124796;27;20495;-29
2022/04/18 05:24:51;;;;;;;0.20;0.20;;;;;;;19.71;39.98;101575.72;5122372;27;20401;-31
2022/04/18 05:27:17;;;;;;;0.20;0.20;;;;;;;19.72;39.82;101571.03;5123860;27;20130;-29
2022/04/18 05:29:43;;;;;;;0.20;0.20;;;;;;;19.70;39.59;101573.22;5122417;27;20089;-31
2022/04/18 05:32:09;;;;;;;0.20;0.20;;;;;;;19.71;39.70;101575.72;5139104;27;20134;-30
2022/04/18 05:34:35;;;;;;;0.13;0.13;;;;;;;19.72;39.59;101579.31;5138674;27;20409;-29
2022/04/18 05:37:01;;;;;;;0.20;0.20;;;;;;;19.72;39.84;101587.59;5139263;27;20395;-29
2022/04/18 05:39:27;;;;;;;0.20;0.20;;;;;;;19.71;39.48;101583.19;5143196;27;20047;-30
2022/04/18 05:41:52;;;;;;;0.20;0.20;;;;;;;19.72;39.65;101582.06;5141815;27;20046;-31
2022/04/18 05:44:18;;;;;;;0.20;0.20;;;;;;;19.70;39.54;101587.06;5136726;27;20047;-30
2022/04/18 05:46:43;;;;;;;0.20;0.20;;;;;;;19.70;39.66;101593.41;5140628;27;20043;-30
2022/04/18 05:49:09;;;;;;;0.20;0.20;;;;;;;19.71;39.65;101592.31;5137513;27;20047;-29
2022/04/18 05:51:37;;;;;;;0.20;0.20;;;;;;;19.70;39.62;101596.16;5140099;27;20134;-30
2022/04/18 05:54:03;;;;;;;0.20;0.20;;;;;;;19.71;39.50;101603.34;5142478;27;20106;-30
2022/04/18 05:56:29;;;;;;;0.20;0.20;;;;;;;19.71;39.79;101603.34;5123099;27;20066;-31
2022/04/18 05:58:55;;;;;;;0.20;0.20;;;;;;;19.71;39.28;101606.13;5139232;27;20078;-29
2022/04/18 06:01:21;;;;;;;0.20;0.20;;;;;;;19.71;39.61;101608.06;5110831;27;20078;-29
2022/04/18 06:03:47;;;;;;;0.20;0.20;;;;;;;19.69;39.52;101605.56;5138501;27;20084;-31
2022/04/18 06:06:14;;;;;;;0.20;0.20;;;;;;;19.70;39.69;101601.69;5138046;27;20482;-30
2022/04/18 06:08:40;;;;;;;0.20;0.20;;;;;;;19.71;39.76;101608.06;5106605;27;20082;-30
2022/04/18 06:11:05;;;;;;;0.20;0.20;;;;;;;19.70;39.45;101607.22;5139363;27;20050;-31
2022/04/18 06:13:32;;;;;;;0.20;0.20;;;;;;;19.71;39.61;101605.28;5144893;27;20129;-30
2022/04/18 06:15:58;;;;;;;0.20;0.20;;;;;;;19.71;39.66;101605.28;5139352;27;20065;-29
2022/04/18 06:18:27;;;;;;;0.20;0.20;;;;;;;19.70;39.53;101612.75;5105767;27;20039;-31
2022/04/18 06:20:53;;;;;;;0.20;0.20;;;;;;;19.71;39.52;101602.53;5136893;27;20476;-30
2022/04/18 06:23:18;;;;;;;0.20;0.20;;;;;;;19.71;39.48;101602.53;5144713;27;20038;-29
2022/04/18 06:25:44;;;;;;;0.20;0.20;;;;;;;19.70;39.79;101593.41;5141440;27;20058;-30
2022/04/18 06:28:12;;;;;;;0.20;0.20;;;;;;;19.72;39.64;101598.66;5122306;27;20078;-31
2022/04/18 06:30:38;;;;;;;0.20;0.20;;;;;;;19.72;39.42;101595.88;5125160;27;20105;-30
2022/04/18 06:33:04;;;;;;;0.20;0.20;;;;;;;19.70;39.36;101604.47;5139355;27;20768;-29
2022/04/18 06:35:29;;;;;;;0.20;0.20;;;;;;;19.71;39.60;101608.06;5138702;27;20074;-29
2022/04/18 06:37:55;;;;;;;0.20;0.20;;;;;;;19.70;39.68;101609.16;5136310;27;20043;-29
2022/04/18 06:40:21;;;;;;;0.20;0.20;;;;;;;19.70;39.61;101603.63;5139489;27;20046;-29
2022/04/18 06:42:47;;;;;;;0.20;0.20;;;;;;;19.70;39.40;101609.97;5139125;27;20051;-29
2022/04/18 06:45:12;;;;;;;0.20;0.20;;;;;;;19.69;39.69;101604.72;5139270;27;20047;-30
2022/04/18 06:47:38;;;;;;;0.20;0.20;;;;;;;19.70;39.59;101603.63;5144797;27;20038;-29
2022/04/18 06:50:10;;;;;;;0.20;0.20;;;;;;;19.69;39.71;101605.56;5139664;27;20045;-31
2022/04/18 06:52:39;;;;;;;0.20;0.20;;;;;;;19.69;39.50;101591.75;5128675;27;20038;-31
2022/04/18 06:55:05;;;;;;;;;;;;;;;19.69;39.49;101600.03;5144007;27;20066;-30
2022/04/18 06:57:30;;;;;;;0.20;0.20;;;;;;;19.68;39.55;101601.13;5143801;27;19974;-31
2022/04/18 06:59:56;;;;;;;0.20;0.20;;;;;;;19.69;39.20;101608.34;5137638;27;20042;-30
2022/04/18 07:02:22;;;;;;;0.20;0.20;;;;;;;19.70;39.46;101600.88;5138919;27;20039;-30
2022/04/18 07:04:49;;;;;;;0.20;0.20;;;;;;;19.70;39.65;101604.47;5137578;27;20038;-30
2022/04/18 07:07:14;;;;;;;0.20;0.20;;;;;;;19.70;39.44;101604.47;5141693;27;20119;-30
2022/04/18 07:09:40;;;;;;;0.10;0.10;;;;;;;19.69;39.71;101608.34;5139992;27;20047;-31
2022/04/18 07:12:06;;;;;;;0.20;0.20;;;;;;;19.70;39.54;101612.75;5137280;27;20053;-30
2022/04/18 07:14:34;;;;;;;0.20;0.20;;;;;;;19.71;39.61;101605.28;5142012;27;20039;-30
2022/04/18 07:17:00;;;;;;;;;;;;;;;19.70;39.56;101609.16;5123640;27;20120;-30
2022/04/18 07:19:28;;;;;;;0.20;0.20;;;;;;;19.69;39.55;101604.72;5133188;27;20350;-29
2022/04/18 07:21:54;;;;;;;0.20;0.20;;;;;;;19.69;39.34;101607.47;5140792;27;21256;-30
2022/04/18 07:24:19;;;;;;;0.20;0.20;;;;;;;19.69;39.66;101608.34;5145598;27;20043;-29
2022/04/18 07:26:45;;;;;;;0.20;0.20;;;;;;;19.68;39.75;101609.41;5147927;27;20049;-30
2022/04/18 07:29:11;;;;;;;0.10;0.10;;;;;;;19.68;39.30;101614.94;5145331;27;20139;-29
2022/04/18 07:31:36;;;;;;;0.20;0.20;;;;;;;19.70;39.57;101607.22;5143780;27;20053;-32
2022/04/18 07:34:02;;;;;;;0.20;0.20;;;;;;;19.69;39.36;101611.09;5144658;27;20050;-30
2022/04/18 07:36:28;;;;;;;0.20;0.20;;;;;;;19.70;39.36;101607.22;5150524;27;20051;-27
2022/04/18 07:38:53;;;;;;;0.20;0.20;;;;;;;19.70;39.61;101612.75;5127621;27;20095;-29
2022/04/18 07:41:22;;;;;;;0.20;0.20;;;;;;;19.70;39.54;101614.69;5144353;27;20046;-31
2022/04/18 07:43:48;;;;;;;0.20;0.20;;;;;;;19.68;39.46;101603.88;5122323;27;20071;-30
2022/04/18 07:46:15;;;;;;;0.20;0.20;;;;;;;19.69;39.52;101605.56;5144367;27;20485;-30
2022/04/18 07:48:41;;;;;;;0.20;0.20;;;;;;;19.69;39.62;101601.94;5143333;27;20055;-30
2022/04/18 07:51:40;;;;;;;0.20;0.20;;;;;;;19.69;39.71;101601.94;5117164;27;20049;-30
2022/04/18 07:53:53;;;;;;;0.20;0.20;;;;;;;19.70;39.44;101607.22;5128616;27;20081;-30
2022/04/18 07:56:20;;;;;;;0.20;0.20;;;;;;;19.69;39.37;101604.72;5145286;27;20051;-30
2022/04/18 07:58:46;;;;;;;0.20;0.20;;;;;;;19.70;39.35;101611.91;5140449;27;20118;-30
2022/04/18 08:01:12;;;;;;;0.20;0.20;;;;;;;19.68;39.43;101608.56;5140260;27;20074;-29
2022/04/18 08:03:37;;;;;;;0.20;0.20;;;;;;;19.68;39.34;101606.66;5139888;27;20127;-30
2022/04/18 08:06:03;;;;;;;0.20;0.20;;;;;;;19.69;39.59;101602.81;5122685;27;20045;-30
2022/04/18 08:08:30;;;;;;;0.20;0.20;;;;;;;19.68;39.45;101595.59;5138760;27;20112;-30
2022/04/18 08:10:57;;;;;;;0.20;0.20;;;;;;;19.69;39.35;101597.28;5145419;27;20074;-30
2022/04/18 08:13:23;;;;;;;0.20;0.20;;;;;;;19.69;39.57;101590.88;5140631;27;20523;-30
2022/04/18 08:15:48;;;;;;;0.20;0.20;;;;;;;19.69;39.68;101591.75;5126257;27;20055;-30
2022/04/18 08:18:14;;;;;;;0.20;0.20;;;;;;;19.69;39.75;101591.75;5141312;27;20481;-29
2022/04/18 08:20:40;;;;;;;0.20;0.20;;;;;;;19.68;39.54;101590.06;5141207;27;20125;-29
2022/04/18 08:23:06;;;;;;;0.20;0.20;;;;;;;19.68;39.43;101584.53;5142412;27;20051;-30
2022/04/18 08:25:32;;;;;;;0.20;0.20;;;;;;;19.68;39.44;101587.31;5143394;27;20043;-29
2022/04/18 08:27:57;;;;;;;0.20;0.20;;;;;;;19.69;39.45;101588.13;5141066;27;21442;-30
2022/04/18 08:30:23;;;;;;;0.20;0.20;;;;;;;19.70;39.35;101584.28;5128762;27;20084;-31
2022/04/18 08:32:49;;;;;;;0.20;0.20;;;;;;;19.69;39.28;101574.31;5142974;27;20054;-29
2022/04/18 08:35:14;;;;;;;0.20;0.20;;;;;;;19.69;39.67;101582.59;5138996;27;20161;-30
2022/04/18 08:37:40;;;;;;;0.20;0.20;;;;;;;19.70;39.65;101576.00;5138253;27;20116;-31
2022/04/18 08:40:09;;;;;;;0.20;0.20;;;;;;;19.69;39.49;101575.16;5143947;27;20081;-30
2022/04/18 08:42:37;;;;;;;0.20;0.20;;;;;;;19.68;39.43;101581.78;5126426;27;20078;-29
2022/04/18 08:45:06;;;;;;;0.10;0.10;;;;;;;19.69;39.66;101574.31;5144130;27;20134;-29
2022/04/18 08:53:03;;;;;;;0.20;0.20;;;;;;;19.67;39.37;101574.59;5125586;27;20134;-29
2022/04/18 08:55:29;;;;;;;0.20;0.20;;;;;;;19.68;39.36;101575.41;5145612;27;20145;-31
2022/04/18 08:57:55;;;;;;;0.20;0.20;;;;;;;19.67;39.29;101577.34;5139294;27;20058;-32
2022/04/18 09:00:21;;;;;;;0.20;0.20;;;;;;;19.68;39.56;101569.91;5141209;27;20046;-29
2022/04/18 09:02:47;;;;;;;0.20;0.20;;;;;;;19.68;39.54;101565.19;5139152;27;20085;-29
2022/04/18 09:05:13;;;;;;;0.20;0.20;;;;;;;19.68;39.33;101562.44;5146184;27;20412;-30
2022/04/18 09:07:41;;;;;;;0.20;0.20;;;;;;;19.69;39.50;101563.25;5109005;27;20070;-29
2022/04/18 09:10:07;;;;;;;;;;;;;;;19.69;39.58;101560.50;5123334;27;20476;-32
2022/04/18 09:12:33;;;;;;;0.20;0.20;;;;;;;19.67;39.43;101566.31;5141777;27;19926;-32
2022/04/18 09:14:59;;;;;;;0.20;0.20;;;;;;;19.68;39.40;101554.13;5123693;27;20173;-30
2022/04/18 09:17:30;;;;;;;0.20;0.20;;;;;;;19.67;39.39;101558.00;5120613;27;20077;-31
2022/04/18 09:20:12;;;;;;;0.20;0.20;;;;;;;19.67;39.39;101558.00;5123799;27;21349;-29
2022/04/18 09:22:42;;;;;;;0.20;0.20;;;;;;;19.67;39.43;101552.47;5141536;27;20636;-29
2022/04/18 09:25:23;;;;;;;0.20;0.20;;;;;;;19.68;39.67;101556.91;5141288;27;20536;-31
2022/04/18 09:30:31;;;;;;;0.20;0.20;;;;;;;19.68;39.78;101545.84;5183791;27;20204;-28
2022/04/18 09:33:02;;;;;;;0.20;0.20;;;;;;;19.68;39.37;101545.03;5133356;27;20083;-31
2022/04/18 09:35:28;;;;;;;0.20;0.20;;;;;;;19.67;39.66;101544.19;5168958;27;20070;-31
2022/04/18 09:37:59;;;;;;;0.20;0.20;;;;;;;19.68;39.50;101548.63;5142312;27;20401;-30
2022/04/18 09:40:25;;;;;;;0.20;0.20;;;;;;;19.68;39.34;101543.09;5133836;27;20085;-30
2022/04/18 09:42:52;;;;;;;0.20;0.20;;;;;;;19.69;39.57;101535.63;5156236;27;20042;-31
2022/04/18 09:45:18;;;;;;;0.20;0.20;;;;;;;19.68;39.42;101528.44;5158269;27;20130;-30
2022/04/18 09:47:44;;;;;;;0.20;0.20;;;;;;;19.69;39.65;101535.63;5138468;27;20044;-31
2022/04/18 09:53:17;;;;;;;0.20;0.20;;;;;;;19.68;39.42;101525.69;5138800;27;20156;-29
2022/04/18 09:55:45;;;;;;;0.20;0.20;;;;;;;19.67;39.58;101529.56;5155967;27;20473;-30
2022/04/18 09:58:11;;;;;;;;;;;;;;;19.68;39.33;101522.91;5155629;27;20089;-31
2022/04/18 10:00:57;;;;;;;0.20;0.20;;;;;;;19.66;39.65;101520.44;5141595;27;19923;-30
2022/04/18 10:03:22;;;;;;;0.20;0.20;;;;;;;19.66;39.71;101523.19;5138888;27;20038;-30
2022/04/18 10:05:49;;;;;;;0.20;0.20;;;;;;;19.66;39.37;101514.91;5156546;27;20377;-30
2022/04/18 10:08:15;;;;;;;0.20;0.20;;;;;;;19.68;39.52;101507.16;5154668;27;20130;-31
2022/04/18 10:10:41;;;;;;;0.20;0.20;;;;;;;19.68;39.40;101504.41;5138065;27;20062;-30
2022/04/18 10:13:08;;;;;;;0.20;0.20;;;;;;;19.68;39.46;101506.34;5157450;27;20289;-30
2022/04/18 10:15:37;;;;;;;0.20;0.20;;;;;;;19.68;39.60;101503.56;5141530;27;20081;-31
2022/04/18 10:18:05;;;;;;;0.20;0.20;;;;;;;19.68;39.64;101509.94;5151183;27;20126;-30
2022/04/18 10:21:10;;;;;;;0.10;0.10;;;;;;;19.68;39.41;101500.81;5134388;27;20134;-31
2022/04/18 10:24:16;;;;;;;0.20;0.20;;;;;;;19.68;39.61;101495.28;5126309;27;20066;-30
2022/04/18 10:27:12;;;;;;;0.20;0.20;;;;;;;19.67;39.42;101497.22;5140133;27;20487;-30
2022/04/18 10:29:42;;;;;;;0.20;0.20;;;;;;;19.67;39.49;101488.94;5144480;27;20082;-30
2022/04/18 10:32:07;;;;;;;0.20;0.20;;;;;;;19.67;39.68;101491.69;5153242;27;20560;-31
2022/04/18 10:34:34;;;;;;;0.20;0.20;;;;;;;19.67;39.52;101488.09;5157576;27;20039;-31
2022/04/18 10:37:07;;;;;;;0.20;0.20;;;;;;;19.68;39.64;101487.00;5136803;27;20317;-30
2022/04/18 10:39:34;;;;;;;0.20;0.20;;;;;;;19.68;39.75;101487.81;5156634;27;20043;-30
2022/04/18 10:42:18;;;;;;;0.20;0.20;;;;;;;19.68;39.41;101479.53;5120447;27;20525;-30
2022/04/18 10:44:57;;;;;;;0.20;0.20;;;;;;;19.67;39.41;101475.13;5121422;27;20039;-30
2022/04/18 10:47:22;;;;;;;0.20;0.20;;;;;;;19.67;39.85;101479.81;5121521;27;20074;-31
2022/04/18 10:50:16;;;;;;;0.20;0.20;;;;;;;19.67;39.27;101480.63;5143413;27;20039;-30
2022/04/18 10:52:42;;;;;;;0.20;0.20;;;;;;;19.67;39.59;101474.28;5128187;27;20071;-30
2022/04/18 10:55:18;;;;;;;0.20;0.20;;;;;;;19.68;39.59;101476.75;5145955;27;20445;-30
2022/04/18 10:57:43;;;;;;;0.10;0.10;;;;;;;19.68;39.36;101473.19;5141772;27;20115;-32
2022/04/18 11:00:10;;;;;;;0.20;0.20;;;;;;;19.66;39.33;101465.16;5138991;27;20051;-29
2022/04/18 11:02:39;;;;;;;0.20;0.20;;;;;;;19.67;39.45;101458.53;5143341;27;20071;-29
2022/04/18 11:05:05;;;;;;;0.20;0.20;;;;;;;19.68;39.38;101467.66;5137913;27;20138;-30
2022/04/18 11:07:39;;;;;;;0.20;0.20;;;;;;;19.67;39.67;101466.81;5135574;27;20489;-30
2022/04/18 11:10:18;;;;;;;0.20;0.20;;;;;;;19.67;39.75;101468.75;5121678;27;20066;-31
2022/04/18 11:12:44;;;;;;;0.20;0.20;;;;;;;19.67;39.60;101468.75;5124793;27;20040;-31
2022/04/18 11:15:09;;;;;;;0.20;0.20;;;;;;;19.68;39.54;101470.41;5123346;27;20053;-31
2022/04/18 11:17:42;;;;;;;0.20;0.20;;;;;;;19.68;39.60;101459.34;5137273;27;20039;-31
2022/04/18 11:20:29;;;;;;;0.20;0.20;;;;;;;19.68;39.55;101454.66;5106306;27;20104;-29
2022/04/18 11:23:18;;;;;;;0.20;0.20;;;;;;;19.67;39.80;101453.00;5123971;27;20078;-30
2022/04/18 11:25:54;;;;;;;0.20;0.20;;;;;;;19.67;39.66;101455.78;5127725;27;20080;-30
2022/04/18 11:28:20;;;;;;;0.20;0.20;;;;;;;19.67;39.70;101452.19;5139159;27;20081;-31
2022/04/18 11:30:46;;;;;;;0.20;0.20;;;;;;;19.67;39.41;101455.78;5144023;27;20070;-30
2022/04/18 11:33:11;;;;;;;0.20;0.20;;;;;;;19.67;39.25;101450.25;5138546;27;20405;-29
2022/04/18 11:35:37;;;;;;;0.20;0.20;;;;;;;19.68;39.44;101443.59;5123247;27;20045;-30
2022/04/18 11:38:07;;;;;;;0.20;0.20;;;;;;;19.67;39.58;101444.72;5141408;27;20054;-30
2022/04/18 11:40:41;;;;;;;0.20;0.20;;;;;;;19.67;39.44;101441.94;5121333;27;20526;-31
2022/04/18 11:43:16;;;;;;;0.20;0.20;;;;;;;19.68;39.63;101446.38;5144056;27;20072;-29
2022/04/18 11:45:43;;;;;;;0.20;0.20;;;;;;;19.67;39.34;101436.44;5145322;27;20071;-32
2022/04/18 11:48:12;;;;;;;0.20;0.20;;;;;;;19.69;39.60;101442.53;5137054;27;20035;-31